createdAt,value
2018-06-16T00:02:25.441Z,98.60
2018-06-16T00:04:53.376Z,98.50
2018-06-16T00:07:21.322Z,98.60
2018-06-16T00:09:49.182Z,98.70
2018-06-16T00:12:17.083Z,98.10
2018-06-16T00:14:45.002Z,97.60
2018-06-16T00:17:13.049Z,98.00
2018-06-16T00:19:40.974Z,98.10
2018-06-16T00:22:08.922Z,97.80
2018-06-16T00:24:36.899Z,97.70
2018-06-16T00:27:04.924Z,97.10
2018-06-16T00:29:32.782Z,97.40
2018-06-16T00:32:00.729Z,97.80
2018-06-16T00:34:28.798Z,97.90
2018-06-16T00:36:56.838Z,98.20
2018-06-16T00:39:24.718Z,98.40
2018-06-16T00:41:52.629Z,98.10
2018-06-16T00:44:20.580Z,98.30
2018-06-16T00:46:48.471Z,98.50
2018-06-16T00:49:16.538Z,98.60
2018-06-16T00:51:44.484Z,98.50
2018-06-16T00:54:12.370Z,98.10
2018-06-16T00:56:40.470Z,98.80
2018-06-16T00:59:08.343Z,98.80
2018-06-16T01:01:36.173Z,98.90
2018-06-16T01:04:04.074Z,99.10
2018-06-16T01:06:32.122Z,98.80
2018-06-16T01:09:00.044Z,99.00
2018-06-16T01:11:27.955Z,99.10
2018-06-16T01:13:55.929Z,99.40
2018-06-16T01:16:23.982Z,98.80
2018-06-16T01:18:51.934Z,98.30
2018-06-16T01:21:19.833Z,98.10
2018-06-16T01:23:47.779Z,98.30
2018-06-16T01:26:15.698Z,97.60
2018-06-16T01:28:43.750Z,97.60
2018-06-16T01:31:12.346Z,97.50
2018-06-16T01:33:40.370Z,97.50
2018-06-16T01:36:08.306Z,98.10
2018-06-16T01:38:36.337Z,98.10
2018-06-16T01:41:04.225Z,99.00
2018-06-16T01:43:32.108Z,99.90
2018-06-16T01:46:00.080Z,99.90
2018-06-16T01:48:28.028Z,99.90
2018-06-16T01:50:55.963Z,99.90
2018-06-16T01:53:23.846Z,99.90
2018-06-16T01:55:51.793Z,99.90
2018-06-16T01:58:19.726Z,99.90
2018-06-16T02:00:47.694Z,99.90
2018-06-16T02:05:50.105Z,99.60
2018-06-16T02:08:18.035Z,99.50
2018-06-16T02:10:45.894Z,99.50
2018-06-16T02:13:13.955Z,99.60
2018-06-16T02:15:41.980Z,99.70
2018-06-16T02:18:09.898Z,99.90
2018-06-16T02:20:37.998Z,99.80
2018-06-16T02:23:05.932Z,99.90
2018-06-16T02:25:34.231Z,99.90
2018-06-16T02:28:02.109Z,99.90
2018-06-16T02:30:30.064Z,99.90
2018-06-16T02:32:57.955Z,99.90
2018-06-16T02:35:25.916Z,99.90
2018-06-16T02:37:53.870Z,99.90
2018-06-16T02:40:21.789Z,99.90
2018-06-16T02:42:49.673Z,99.90
2018-06-16T02:45:17.632Z,99.90
2018-06-16T02:47:45.540Z,99.90
2018-06-16T02:50:13.495Z,99.90
2018-06-16T02:52:41.575Z,99.90
2018-06-16T02:55:09.688Z,99.90
2018-06-16T02:57:37.614Z,99.90
2018-06-16T03:00:05.575Z,99.90
2018-06-16T03:02:33.550Z,99.90
2018-06-16T03:05:01.468Z,99.90
2018-06-16T03:07:29.386Z,99.90
2018-06-16T03:09:57.363Z,99.90
2018-06-16T03:12:25.329Z,99.90
2018-06-16T03:14:53.293Z,99.90
2018-06-16T03:17:21.348Z,99.90
2018-06-16T03:19:49.321Z,99.90
2018-06-16T03:22:17.195Z,99.90
2018-06-16T03:24:45.195Z,99.90
2018-06-16T03:27:13.151Z,99.90
2018-06-16T03:29:41.095Z,99.90
2018-06-16T03:32:09.130Z,99.90
2018-06-16T03:34:36.967Z,99.90
2018-06-16T03:37:05.015Z,99.90
2018-06-16T03:39:32.968Z,99.90
2018-06-16T03:42:00.954Z,99.90
2018-06-16T03:44:28.891Z,99.90
2018-06-16T03:46:56.767Z,99.90
2018-06-16T03:49:24.744Z,99.90
2018-06-16T03:51:52.649Z,99.90
2018-06-16T03:54:20.572Z,99.90
2018-06-16T03:56:48.752Z,99.90
2018-06-16T03:59:16.694Z,99.90
2018-06-16T04:01:44.598Z,99.90
2018-06-16T04:04:12.979Z,99.90
2018-06-16T04:06:40.936Z,99.90
2018-06-16T04:09:10.101Z,99.90
2018-06-16T04:11:38.290Z,99.90
2018-06-16T04:14:06.648Z,99.90
2018-06-16T04:16:34.575Z,99.90
2018-06-16T04:21:30.391Z,99.90
2018-06-16T04:23:58.370Z,99.90
2018-06-16T04:26:26.308Z,99.90
2018-06-16T04:28:54.710Z,99.90
2018-06-16T04:31:22.600Z,99.90
2018-06-16T04:33:50.575Z,99.90
2018-06-16T04:36:18.625Z,99.90
2018-06-16T04:38:46.535Z,99.90
2018-06-16T04:41:14.418Z,99.90
2018-06-16T04:43:42.404Z,99.90
2018-06-16T04:46:10.434Z,99.90
2018-06-16T04:48:45.046Z,99.90
2018-06-16T04:51:12.940Z,99.90
2018-06-16T04:53:40.908Z,99.90
2018-06-16T04:56:08.893Z,99.90
2018-06-16T04:58:37.140Z,99.90
2018-06-16T05:01:05.196Z,99.90
2018-06-16T05:03:33.850Z,99.90
2018-06-16T05:06:01.851Z,99.90
2018-06-16T05:08:29.811Z,99.90
2018-06-16T05:10:57.650Z,99.90
2018-06-16T05:13:25.631Z,99.90
2018-06-16T05:15:53.562Z,99.90
2018-06-16T05:18:21.449Z,99.90
2018-06-16T05:20:49.328Z,99.90
2018-06-16T05:25:44.938Z,99.90
2018-06-16T05:28:12.813Z,99.90
2018-06-16T05:30:40.787Z,99.90
2018-06-16T05:35:36.498Z,99.90
2018-06-16T05:38:04.403Z,99.90
2018-06-16T05:40:32.282Z,99.90
2018-06-16T05:43:00.159Z,99.90
2018-06-16T05:45:28.048Z,99.90
2018-06-16T05:47:56.024Z,99.90
2018-06-16T05:50:23.885Z,99.90
2018-06-16T05:52:55.099Z,99.90
2018-06-16T05:55:22.984Z,99.90
2018-06-16T05:57:50.919Z,99.90
2018-06-16T06:00:21.050Z,99.90
2018-06-16T06:02:52.344Z,99.90
2018-06-16T06:05:20.363Z,99.90
2018-06-16T06:07:48.491Z,99.90
2018-06-16T06:10:16.451Z,99.90
2018-06-16T06:12:45.811Z,99.90
2018-06-16T06:15:13.726Z,99.90
2018-06-16T06:17:41.558Z,99.60
2018-06-16T06:20:09.436Z,99.30
2018-06-16T06:22:37.503Z,98.70
2018-06-16T06:25:05.517Z,98.00
2018-06-16T06:27:33.448Z,97.40
2018-06-16T06:30:01.496Z,97.30
2018-06-16T06:32:29.439Z,96.90
2018-06-16T06:34:57.416Z,96.50
2018-06-16T06:37:25.420Z,96.10
2018-06-16T06:39:53.757Z,95.50
2018-06-16T06:42:21.711Z,94.70
2018-06-16T06:44:49.575Z,92.90
2018-06-16T06:47:17.547Z,91.80
2018-06-16T06:49:45.508Z,91.00
2018-06-16T06:52:16.282Z,91.10
2018-06-16T06:54:44.329Z,90.80
2018-06-16T06:57:12.190Z,90.00
2018-06-16T06:59:40.120Z,89.70
2018-06-16T07:02:08.030Z,88.70
2018-06-16T07:04:35.922Z,88.60
2018-06-16T07:07:03.960Z,87.30
2018-06-16T07:09:32.002Z,86.00
2018-06-16T07:11:59.816Z,85.30
2018-06-16T07:14:27.721Z,83.50
2018-06-16T07:16:55.676Z,81.70
2018-06-16T07:19:23.681Z,79.10
2018-06-16T07:21:51.660Z,78.40
2018-06-16T07:24:19.765Z,78.30
2018-06-16T07:26:47.722Z,77.00
2018-06-16T07:29:15.712Z,75.80
2018-06-16T07:31:43.690Z,75.10
2018-06-16T07:34:11.957Z,73.70
2018-06-16T07:36:40.120Z,71.80
2018-06-16T07:39:09.031Z,71.40
2018-06-16T07:41:37.020Z,72.80
2018-06-16T07:44:05.405Z,73.90
2018-06-16T07:46:33.423Z,73.10
2018-06-16T07:49:01.855Z,71.80
2018-06-16T07:51:54.379Z,73.10
2018-06-16T07:54:22.444Z,74.10
2018-06-16T07:56:50.332Z,74.80
2018-06-16T07:59:18.198Z,74.60
2018-06-16T08:01:46.114Z,73.00
2018-06-16T08:04:14.109Z,71.50
2018-06-16T08:06:42.044Z,69.50
2018-06-16T08:09:10.797Z,68.20
2018-06-16T08:11:38.811Z,66.70
2018-06-16T08:14:06.910Z,67.30
2018-06-16T08:16:34.845Z,66.50
2018-06-16T08:19:02.812Z,66.60
2018-06-16T08:21:30.717Z,66.30
2018-06-16T08:23:58.794Z,67.50
2018-06-16T08:26:26.644Z,69.00
2018-06-16T08:28:54.630Z,68.60
2018-06-16T08:31:22.680Z,66.40
2018-06-16T08:33:50.581Z,65.30
2018-06-16T08:36:18.520Z,63.40
2018-06-16T08:38:46.545Z,60.40
2018-06-16T08:41:14.548Z,58.60
2018-06-16T08:43:42.544Z,58.20
2018-06-16T08:46:10.433Z,57.60
2018-06-16T08:48:38.423Z,57.70
2018-06-16T08:51:06.422Z,56.60
2018-06-16T08:53:34.298Z,55.30
2018-06-16T08:56:02.192Z,52.30
2018-06-16T08:58:29.933Z,49.70
2018-06-16T09:00:57.782Z,49.50
2018-06-16T09:03:25.648Z,48.60
2018-06-16T09:05:54.005Z,49.40
2018-06-16T09:08:21.775Z,50.70
2018-06-16T09:10:49.813Z,51.60
2018-06-16T09:13:17.766Z,51.30
2018-06-16T09:15:45.686Z,51.20
2018-06-16T09:18:13.744Z,49.80
2018-06-16T09:20:41.622Z,48.10
2018-06-16T09:23:09.620Z,47.00
2018-06-16T09:25:37.654Z,46.20
2018-06-16T09:28:05.469Z,45.30
2018-06-16T09:30:33.446Z,45.10
2018-06-16T09:33:01.409Z,43.90
2018-06-16T09:35:29.346Z,43.20
2018-06-16T09:37:57.270Z,42.80
2018-06-16T09:40:25.176Z,42.30
2018-06-16T09:42:53.157Z,42.80
2018-06-16T09:45:21.058Z,42.70
2018-06-16T09:47:48.975Z,41.60
2018-06-16T09:50:16.967Z,40.80
2018-06-16T09:52:44.882Z,40.60
2018-06-16T09:55:12.794Z,40.70
2018-06-16T09:57:40.804Z,41.40
2018-06-16T10:00:13.258Z,41.20
2018-06-16T10:02:41.292Z,39.90
2018-06-16T10:05:09.330Z,38.40
2018-06-16T10:07:37.239Z,35.70
2018-06-16T10:10:05.105Z,34.40
2018-06-16T10:12:33.335Z,33.70
2018-06-16T10:15:01.268Z,33.90
2018-06-16T10:17:29.221Z,32.60
2018-06-16T10:19:57.043Z,31.50
2018-06-16T10:22:24.907Z,31.50
2018-06-16T10:24:52.807Z,31.30
2018-06-16T10:27:20.734Z,31.20
2018-06-16T10:29:48.606Z,31.40
2018-06-16T10:32:16.810Z,33.20
2018-06-16T10:34:45.031Z,34.80
2018-06-16T10:37:12.964Z,34.90
2018-06-16T10:39:40.964Z,34.40
2018-06-16T10:42:08.881Z,34.50
2018-06-16T10:44:36.793Z,33.20
2018-06-16T10:47:04.915Z,31.60
2018-06-16T10:49:33.449Z,31.60
2018-06-16T10:52:02.190Z,31.90
2018-06-16T10:54:30.373Z,32.60
2018-06-16T10:56:58.361Z,33.60
2018-06-16T10:59:26.296Z,34.30
2018-06-16T11:01:54.141Z,36.60
2018-06-16T11:04:23.449Z,37.20
2018-06-16T11:06:51.375Z,38.00
2018-06-16T11:09:20.148Z,39.10
2018-06-16T11:11:47.984Z,40.50
2018-06-16T11:14:16.226Z,42.00
2018-06-16T11:16:44.355Z,43.10
2018-06-16T11:19:12.316Z,44.40
2018-06-16T11:21:41.247Z,45.20
2018-06-16T11:24:09.684Z,45.60
2018-06-16T11:26:37.560Z,45.90
2018-06-16T11:29:05.894Z,46.00
2018-06-16T11:31:33.911Z,45.50
2018-06-16T11:34:01.898Z,45.40
2018-06-16T11:36:29.852Z,45.70
2018-06-16T11:38:58.175Z,46.20
2018-06-16T11:41:26.236Z,46.80
2018-06-16T11:43:54.158Z,48.50
2018-06-16T11:46:22.110Z,49.30
2018-06-16T11:48:50.165Z,49.70
2018-06-16T11:51:18.517Z,50.00
2018-06-16T11:53:46.569Z,51.10
2018-06-16T11:56:14.719Z,52.00
2018-06-16T11:58:42.692Z,52.50
2018-06-16T12:01:10.603Z,52.20
2018-06-16T12:06:06.608Z,52.70
2018-06-16T12:08:34.496Z,52.60
2018-06-16T12:11:02.566Z,51.90
2018-06-16T12:13:30.543Z,50.90
2018-06-16T12:15:58.525Z,49.60
2018-06-16T12:18:26.562Z,50.10
2018-06-16T12:20:54.447Z,49.80
2018-06-16T12:23:22.543Z,50.30
2018-06-16T12:25:50.615Z,50.60
2018-06-16T12:28:18.784Z,50.90
2018-06-16T12:30:46.805Z,51.30
2018-06-16T12:33:15.094Z,51.10
2018-06-16T12:35:43.047Z,50.90
2018-06-16T12:38:11.151Z,51.70
2018-06-16T12:40:39.374Z,51.40
2018-06-16T12:43:07.270Z,50.40
2018-06-16T12:45:35.221Z,49.30
2018-06-16T12:48:03.344Z,47.30
2018-06-16T12:50:31.513Z,46.00
2018-06-16T12:52:59.510Z,45.70
2018-06-16T12:55:27.462Z,45.40
2018-06-16T12:57:55.510Z,45.10
2018-06-16T13:00:23.494Z,45.50
2018-06-16T13:02:51.489Z,46.20
2018-06-16T13:05:20.898Z,46.60
2018-06-16T13:07:51.543Z,46.20
2018-06-16T13:10:19.553Z,47.00
2018-06-16T13:12:47.610Z,46.00
2018-06-16T13:15:15.784Z,46.30
2018-06-16T13:17:43.704Z,45.20
2018-06-16T13:20:11.626Z,44.20
2018-06-16T13:22:39.616Z,44.50
2018-06-16T13:25:07.621Z,43.90
2018-06-16T13:27:35.630Z,43.30
2018-06-16T13:30:03.643Z,42.10
2018-06-16T13:32:31.561Z,42.50
2018-06-16T13:35:01.981Z,43.10
2018-06-16T13:37:30.064Z,43.10
2018-06-16T13:39:58.028Z,42.50
2018-06-16T13:42:26.083Z,42.00
2018-06-16T13:44:54.012Z,42.00
2018-06-16T13:47:21.965Z,42.30
2018-06-16T13:49:49.971Z,42.60
2018-06-16T13:52:18.367Z,43.60
2018-06-16T13:54:46.420Z,43.50
2018-06-16T13:57:14.533Z,43.50
2018-06-16T13:59:42.400Z,44.00
2018-06-16T14:02:10.330Z,44.80
2018-06-16T14:04:38.416Z,45.10
2018-06-16T14:07:06.650Z,45.90
2018-06-16T14:09:35.260Z,46.70
2018-06-16T14:12:05.546Z,47.00
2018-06-16T14:14:33.667Z,47.70
2018-06-16T14:17:01.626Z,47.80
2018-06-16T14:19:29.993Z,48.00
2018-06-16T14:21:58.211Z,47.80
2018-06-16T14:24:26.490Z,47.80
2018-06-16T14:26:54.350Z,47.80
2018-06-16T14:29:22.276Z,48.50
2018-06-16T14:31:52.891Z,48.20
2018-06-16T14:34:20.966Z,48.20
2018-06-16T14:36:52.614Z,47.50
2018-06-16T14:39:20.806Z,47.50
2018-06-16T14:41:50.118Z,47.60
2018-06-16T14:44:19.637Z,47.80
2018-06-16T14:46:48.863Z,47.60
2018-06-16T14:49:17.004Z,47.20
2018-06-16T14:51:44.976Z,47.20
2018-06-16T14:54:12.873Z,47.00
2018-06-16T14:56:40.866Z,46.70
2018-06-16T14:59:08.909Z,46.20
2018-06-16T15:01:36.909Z,46.00
2018-06-16T15:04:05.175Z,46.80
2018-06-16T15:06:33.099Z,47.80
2018-06-16T15:09:01.010Z,47.30
2018-06-16T15:11:28.955Z,47.20
2018-06-16T15:13:57.029Z,47.60
2018-06-16T15:16:24.874Z,47.50
2018-06-16T15:18:52.804Z,46.90
2018-06-16T15:21:20.695Z,46.60
2018-06-16T15:23:48.596Z,47.10
2018-06-16T15:26:16.423Z,47.50
2018-06-16T15:28:44.430Z,47.60
2018-06-16T15:31:12.364Z,49.00
2018-06-16T15:33:40.408Z,48.90
2018-06-16T15:36:08.323Z,48.70
2018-06-16T15:38:36.286Z,48.60
2018-06-16T15:43:32.376Z,49.00
2018-06-16T15:46:00.273Z,49.20
2018-06-16T15:48:28.309Z,49.40
2018-06-16T15:50:56.301Z,49.70
2018-06-16T15:53:24.442Z,49.80
2018-06-16T15:55:52.357Z,49.80
2018-06-16T15:58:20.293Z,50.30
2018-06-16T16:00:48.327Z,50.60
2018-06-16T16:03:16.282Z,51.10
2018-06-16T16:08:11.924Z,50.90
2018-06-16T16:10:39.857Z,51.30
2018-06-16T16:13:07.844Z,51.30
2018-06-16T16:15:35.897Z,51.50
2018-06-16T16:18:03.899Z,51.90
2018-06-16T16:20:31.890Z,52.40
2018-06-16T16:22:59.932Z,54.10
2018-06-16T16:25:27.992Z,59.00
2018-06-16T16:27:56.132Z,58.80
2018-06-16T16:30:24.060Z,63.70
2018-06-16T16:32:53.904Z,70.00
2018-06-16T16:35:21.866Z,77.20
2018-06-16T16:37:49.852Z,85.30
2018-06-16T16:40:17.965Z,92.00
2018-06-16T16:42:45.836Z,98.20
2018-06-16T16:45:13.768Z,99.90
2018-06-16T16:47:41.674Z,99.90
2018-06-16T16:50:09.631Z,99.90
2018-06-16T16:52:37.573Z,99.90
2018-06-16T16:55:05.647Z,99.90
2018-06-16T16:57:33.769Z,99.90
2018-06-16T17:00:01.691Z,99.90
2018-06-16T17:02:30.678Z,99.90
2018-06-16T17:04:58.717Z,99.90
2018-06-16T17:07:26.608Z,99.90
2018-06-16T17:09:54.929Z,99.90
2018-06-16T17:12:23.100Z,99.90
2018-06-16T17:14:51.022Z,99.90
2018-06-16T17:17:19.194Z,99.90
2018-06-16T17:19:48.028Z,99.90
2018-06-16T17:22:15.887Z,99.90
2018-06-16T17:24:43.736Z,99.90
2018-06-16T17:27:11.708Z,99.90
2018-06-16T17:29:39.625Z,99.90
2018-06-16T17:32:07.637Z,99.90
2018-06-16T17:37:03.377Z,99.90
2018-06-16T17:39:31.267Z,99.90
2018-06-16T17:41:59.292Z,99.90
2018-06-16T17:44:27.147Z,99.90
2018-06-16T17:46:55.072Z,99.90
2018-06-16T17:49:23.114Z,99.90
2018-06-16T17:51:51.074Z,99.90
2018-06-16T17:54:19.023Z,99.90
2018-06-16T17:56:46.905Z,99.90
2018-06-16T17:59:14.893Z,99.90
2018-06-16T18:01:42.728Z,99.90
2018-06-16T18:04:10.642Z,99.90
2018-06-16T18:06:38.569Z,99.90
2018-06-16T18:09:08.996Z,99.90
2018-06-16T18:11:37.101Z,99.90
2018-06-16T18:14:05.227Z,99.90
2018-06-16T18:16:33.135Z,99.90
2018-06-16T18:19:01.133Z,99.90
2018-06-16T18:21:29.175Z,99.90
2018-06-16T18:23:57.425Z,99.90
2018-06-16T18:26:25.432Z,99.90
2018-06-16T18:28:53.359Z,99.90
2018-06-16T18:31:21.326Z,99.90
2018-06-16T18:33:49.251Z,99.90
2018-06-16T18:36:20.763Z,99.90
2018-06-16T18:38:48.746Z,99.90
2018-06-16T18:41:16.960Z,99.90
2018-06-16T18:43:45.000Z,99.90
2018-06-16T18:46:13.071Z,99.90
2018-06-16T18:48:40.919Z,99.90
2018-06-16T18:51:08.864Z,99.90
2018-06-16T18:53:36.802Z,99.90
2018-06-16T18:56:05.140Z,99.90
2018-06-16T18:58:33.146Z,99.90
2018-06-16T19:01:01.278Z,99.90
2018-06-16T19:05:57.267Z,99.90
2018-06-16T19:08:25.202Z,99.90
2018-06-16T19:10:53.228Z,99.90
2018-06-16T19:13:21.180Z,99.90
2018-06-16T19:15:49.134Z,99.90
2018-06-16T19:18:17.148Z,99.90
2018-06-16T19:20:45.114Z,99.90
2018-06-16T19:23:13.083Z,99.90
2018-06-16T19:25:40.983Z,99.90
2018-06-16T19:28:08.950Z,99.90
2018-06-16T19:30:37.002Z,99.90
2018-06-16T19:33:05.104Z,99.90
2018-06-16T19:35:33.155Z,99.90
2018-06-16T19:38:01.423Z,99.90
2018-06-16T19:40:29.467Z,99.90
2018-06-16T19:42:57.430Z,99.90
2018-06-16T19:45:25.378Z,99.90
2018-06-16T19:47:53.276Z,99.90
2018-06-16T19:52:49.038Z,99.90
2018-06-16T19:55:17.050Z,99.90
2018-06-16T19:57:44.978Z,99.90
2018-06-16T20:00:13.048Z,99.90
2018-06-16T20:02:40.998Z,99.90
2018-06-16T20:05:09.007Z,99.90
2018-06-16T20:07:36.940Z,99.90
2018-06-16T20:10:04.861Z,99.90
2018-06-16T20:12:32.826Z,99.90
2018-06-16T20:15:00.747Z,99.90
2018-06-16T20:17:28.765Z,99.90
2018-06-16T20:19:56.821Z,99.90
2018-06-16T20:22:24.678Z,99.90
2018-06-16T20:24:52.642Z,99.90
2018-06-16T20:27:20.623Z,99.90
2018-06-16T20:29:48.891Z,99.80
2018-06-16T20:32:16.755Z,99.20
2018-06-16T20:34:44.655Z,99.00
2018-06-16T20:37:12.694Z,99.40
2018-06-16T20:39:40.598Z,99.50
2018-06-16T20:42:08.627Z,99.90
2018-06-16T20:44:36.558Z,99.90
2018-06-16T20:47:04.670Z,99.90
2018-06-16T20:49:32.558Z,99.50
2018-06-16T20:52:00.511Z,99.00
2018-06-16T20:54:28.459Z,99.20
2018-06-16T20:56:56.397Z,98.90
2018-06-16T20:59:24.370Z,99.00
2018-06-16T21:01:52.505Z,99.10
2018-06-16T21:04:20.609Z,99.20
2018-06-16T21:06:48.538Z,99.50
2018-06-16T21:09:16.559Z,99.30
2018-06-16T21:11:44.474Z,99.40
2018-06-16T21:14:12.489Z,99.00
2018-06-16T21:16:40.378Z,99.20
2018-06-16T21:19:08.599Z,99.00
2018-06-16T21:21:36.712Z,99.50
2018-06-16T21:24:04.657Z,98.90
2018-06-16T21:26:32.970Z,98.90
2018-06-16T21:29:00.930Z,98.70
2018-06-16T21:31:28.856Z,98.70
2018-06-16T21:33:56.788Z,99.00
2018-06-16T21:36:24.764Z,98.60
2018-06-16T21:38:52.727Z,99.20
2018-06-16T21:41:20.694Z,99.90
2018-06-16T21:43:48.602Z,99.90
2018-06-16T21:46:16.615Z,99.90
2018-06-16T21:48:44.711Z,99.90
2018-06-16T21:51:12.706Z,99.90
2018-06-16T21:53:41.002Z,99.90
2018-06-16T21:56:08.892Z,99.90
2018-06-16T21:58:36.793Z,99.90
2018-06-16T22:01:04.907Z,99.90
2018-06-16T22:03:32.858Z,99.90
2018-06-16T22:06:00.802Z,99.90
2018-06-16T22:08:33.615Z,99.90
2018-06-16T22:13:30.901Z,99.90
2018-06-16T22:15:59.197Z,99.90
2018-06-16T22:18:27.522Z,99.90
2018-06-16T22:20:55.792Z,99.90
2018-06-16T22:23:23.774Z,99.90
2018-06-16T22:25:51.668Z,99.90
2018-06-16T22:28:19.640Z,99.90
2018-06-16T22:30:47.631Z,99.90
2018-06-16T22:33:15.640Z,99.90
2018-06-16T22:35:43.729Z,99.90
2018-06-16T22:38:11.671Z,99.90
2018-06-16T22:40:39.647Z,99.90
2018-06-16T22:43:07.495Z,99.90
2018-06-16T22:45:35.672Z,99.90
2018-06-16T22:48:03.647Z,99.90
2018-06-16T22:50:31.658Z,99.90
2018-06-16T22:52:59.520Z,99.90
2018-06-16T22:55:27.849Z,99.90
2018-06-16T22:57:55.940Z,99.90
2018-06-16T23:00:27.749Z,99.90
2018-06-16T23:02:56.597Z,99.90
2018-06-16T23:05:24.629Z,99.90
2018-06-16T23:07:53.176Z,99.90
2018-06-16T23:10:21.312Z,99.90
2018-06-16T23:12:49.237Z,99.90
2018-06-16T23:15:17.255Z,99.90
2018-06-16T23:17:45.242Z,99.90
2018-06-16T23:20:13.116Z,99.90
2018-06-16T23:25:08.673Z,99.90
2018-06-16T23:27:36.690Z,99.90
2018-06-16T23:30:05.847Z,99.90
2018-06-16T23:32:33.811Z,99.90
2018-06-16T23:35:01.740Z,99.90
2018-06-16T23:37:29.729Z,99.90
2018-06-16T23:39:57.651Z,99.90
2018-06-16T23:42:25.632Z,99.90
2018-06-16T23:47:21.276Z,99.90
2018-06-16T23:49:49.219Z,99.90
2018-06-16T23:52:17.123Z,99.90
2018-06-16T23:54:45.097Z,99.70
2018-06-16T23:57:13.028Z,99.20
2018-06-16T23:59:41.078Z,99.00
